Date,TemperatureHighF,TemperatureAvgF,TemperatureLowF,DewpointHighF,DewpointAvgF,DewpointLowF,HumidityHigh,HumidityAvg,HumidityLow,PressureMaxIn,PressureMinIn,WindSpeedMaxMPH,WindSpeedAvgMPH,GustSpeedMaxMPH,PrecipitationSumIn
2013-3-1,72,52,31,30,22,9,69,38,11,30.32,30.12,7,0,0,0.00
2013-3-2,66,46,40,29,8,-100,57,31,20,30.45,30.26,13,-137,0,0.00
2013-3-3,76,55,34,41,29,-100,68,43,18,30.30,29.95,15,-7,0,0.00
2013-3-4,86,66,45,54,45,38,88,52,20,29.95,29.71,10,1,0,0.00
2013-3-5,70,58,45,55,27,10,90,38,12,30.37,29.77,11,2,0,0.00
2013-3-6,66,50,36,21,17,11,46,28,14,30.47,30.24,7,1,0,0.00
2013-3-7,75,57,38,53,42,22,74,60,36,30.26,30.10,11,1,0,0.00
2013-3-8,68,63,60,64,58,52,92,84,73,30.14,29.99,5,0,0,0.04
2013-3-9,75,67,63,66,62,58,94,86,71,30.02,29.64,12,2,0,0.08
2013-3-10,68,61,51,63,40,28,92,51,26,30.14,29.65,9,1,0,0.79
2013-3-11,70,53,36,31,27,20,76,41,18,30.22,30.01,8,0,0,0.00
2013-3-12,80,58,36,40,31,26,75,43,15,30.21,30.07,12,1,0,0.00
2013-3-13,78,60,42,45,38,34,83,48,21,30.44,30.22,6,0,0,0.00
2013-3-14,79,60,42,54,43,33,86,56,25,30.40,30.22,12,2,0,0.00
2013-3-15,82,65,48,56,46,37,92,58,21,30.25,29.99,12,2,0,0.00
2013-3-16,84,68,53,60,54,46,92,67,27,30.00,29.73,19,4,0,0.00
2013-3-17,85,70,66,63,60,55,84,72,37,29.81,29.62,10,2,0,0.00
2013-3-18,96,76,63,66,53,32,91,56,11,29.91,29.70,6,1,0,0.00
2013-3-19,80,68,53,63,54,43,73,62,50,29.99,29.82,13,1,0,0.00
2013-3-20,73,64,54,62,46,32,82,56,24,30.22,29.93,13,2,0,0.00
2013-3-21,76,64,51,60,51,38,80,63,51,30.03,29.62,14,3,0,0.00
2013-3-22,86,70,66,66,63,60,92,81,44,29.71,29.61,9,2,0,0.00
2013-3-23,82,69,55,61,56,49,81,63,46,29.79,29.57,4,0,0,0.00
2013-3-24,66,56,46,58,31,17,86,44,18,30.17,29.69,10,1,0,0.00
2013-3-25,62,49,38,25,19,11,55,33,14,30.40,30.17,12,1,0,0.00
2013-3-26,68,52,34,23,20,15,59,32,14,30.52,30.30,5,0,0,0.00
2013-3-27,68,54,36,48,37,23,74,54,37,30.34,30.17,14,3,0,0.00
2013-3-28,71,63,57,57,52,-100,80,70,59,30.20,30.11,13,-8,0,0.00
2013-3-29,79,68,55,60,56,52,92,68,42,30.17,30.03,11,1,0,0.00
2013-3-30,84,72,64,63,60,57,87,68,40,30.11,29.87,11,2,0,0.00
2013-3-31,85,70,63,65,62,58,89,77,45,29.95,29.82,7,1,0,0.09